createdAt,value
2022-12-17T00:02:27.423Z,21.40
2022-12-17T00:05:13.166Z,22.13
2022-12-17T00:07:58.426Z,21.67
2022-12-17T00:10:43.866Z,21.25
2022-12-17T00:13:41.211Z,22.48
2022-12-17T00:16:27.357Z,22.02
2022-12-17T00:19:12.972Z,20.58
2022-12-17T00:21:58.538Z,20.73
2022-12-17T00:24:45.740Z,21.90
2022-12-17T00:27:31.182Z,22.67
2022-12-17T00:30:16.726Z,21.67
2022-12-17T00:33:02.522Z,22.35
2022-12-17T00:35:48.050Z,21.55
2022-12-17T00:38:35.702Z,22.23
2022-12-17T00:41:21.472Z,23.45
2022-12-17T00:44:06.769Z,20.98
2022-12-17T00:46:52.481Z,22.48
2022-12-17T00:49:37.843Z,21.23
2022-12-17T00:52:23.725Z,21.45
2022-12-17T00:55:09.270Z,20.77
2022-12-17T00:57:54.540Z,22.63
2022-12-17T01:00:41.973Z,22.98
2022-12-17T01:03:30.721Z,22.45
2022-12-17T01:06:19.734Z,22.17
2022-12-17T01:09:05.311Z,22.50
2022-12-17T01:11:50.889Z,21.17
2022-12-17T01:14:37.883Z,23.45
2022-12-17T01:17:23.363Z,23.35
2022-12-17T01:20:09.087Z,22.30
2022-12-17T01:22:56.576Z,24.50
2022-12-17T01:25:42.146Z,22.90
2022-12-17T01:28:27.735Z,23.15
2022-12-17T01:31:15.974Z,23.15
2022-12-17T01:34:01.602Z,23.80
2022-12-17T01:36:47.040Z,25.83
2022-12-17T01:39:32.622Z,23.85
2022-12-17T01:42:18.460Z,23.27
2022-12-17T01:45:05.333Z,24.10
2022-12-17T01:48:06.220Z,23.83
2022-12-17T01:50:56.411Z,25.45
2022-12-17T01:53:45.919Z,23.17
2022-12-17T01:56:32.227Z,22.92
2022-12-17T01:59:17.718Z,24.55
2022-12-17T02:02:03.464Z,23.55
2022-12-17T02:04:49.283Z,24.75
2022-12-17T02:08:09.943Z,24.02
2022-12-17T02:11:04.589Z,22.92
2022-12-17T02:13:55.658Z,24.65
2022-12-17T02:16:48.445Z,24.90
2022-12-17T02:19:49.336Z,20.83
2022-12-17T02:23:16.361Z,24.52
2022-12-17T02:26:13.644Z,22.33
2022-12-17T02:29:04.390Z,23.30
2022-12-17T02:31:50.618Z,23.67
2022-12-17T02:34:36.825Z,22.58
2022-12-17T02:37:22.333Z,23.02
2022-12-17T02:40:08.500Z,23.88
2022-12-17T02:42:54.600Z,23.92
2022-12-17T02:45:41.066Z,24.10
2022-12-17T02:48:28.782Z,24.42
2022-12-17T02:51:15.644Z,22.95
2022-12-17T02:54:04.886Z,24.25
2022-12-17T02:56:50.128Z,23.45
2022-12-17T02:59:35.722Z,24.13
2022-12-17T03:02:21.304Z,24.10
2022-12-17T03:05:21.435Z,23.35
2022-12-17T03:08:11.938Z,24.60
2022-12-17T03:10:57.223Z,23.83
2022-12-17T03:13:44.422Z,23.88
2022-12-17T03:16:37.222Z,24.42
2022-12-17T03:19:23.412Z,23.05
2022-12-17T03:22:08.748Z,23.90
2022-12-17T03:24:54.170Z,23.90
2022-12-17T03:27:39.364Z,23.67
2022-12-17T03:30:25.407Z,23.63
2022-12-17T03:33:10.753Z,23.58
2022-12-17T03:35:56.508Z,23.38
2022-12-17T03:38:42.086Z,22.45
2022-12-17T03:41:27.308Z,23.25
2022-12-17T03:44:12.677Z,22.92
2022-12-17T03:46:58.577Z,23.42
2022-12-17T03:49:43.954Z,24.02
2022-12-17T03:52:29.486Z,24.38
2022-12-17T03:55:15.078Z,22.73
2022-12-17T03:58:00.826Z,23.38
2022-12-17T04:00:46.015Z,22.40
2022-12-17T04:03:31.735Z,23.75
2022-12-17T04:06:17.233Z,22.88
2022-12-17T04:09:02.815Z,23.33
2022-12-17T04:11:48.495Z,22.95
2022-12-17T04:14:33.818Z,24.73
2022-12-17T04:17:19.334Z,23.33
2022-12-17T04:20:06.063Z,23.13
2022-12-17T04:22:51.261Z,24.05
2022-12-17T04:25:36.641Z,23.88
2022-12-17T04:28:22.034Z,24.05
2022-12-17T04:31:07.419Z,23.77
2022-12-17T04:33:52.995Z,26.42
2022-12-17T04:36:38.432Z,23.88
2022-12-17T04:39:24.142Z,22.90
2022-12-17T04:42:10.109Z,23.20
2022-12-17T04:44:55.415Z,25.98
2022-12-17T04:47:41.329Z,26.33
2022-12-17T04:50:26.764Z,24.00
2022-12-17T04:53:23.061Z,25.75
2022-12-17T04:56:08.509Z,24.50
2022-12-17T04:58:53.849Z,25.95
2022-12-17T05:01:39.491Z,25.83
2022-12-17T05:04:25.076Z,26.00
2022-12-17T05:07:10.677Z,23.35
2022-12-17T05:09:56.064Z,24.15
2022-12-17T05:12:41.926Z,24.80
2022-12-17T05:15:27.347Z,23.80
2022-12-17T05:18:13.102Z,24.08
2022-12-17T05:20:58.681Z,22.75
2022-12-17T05:23:44.099Z,22.85
2022-12-17T05:26:44.738Z,24.58
2022-12-17T05:29:30.037Z,24.38
2022-12-17T05:32:16.007Z,23.80
2022-12-17T05:35:01.581Z,25.55
2022-12-17T05:37:47.334Z,24.80
2022-12-17T05:40:32.640Z,23.98
2022-12-17T05:43:21.292Z,24.55
2022-12-17T05:46:07.223Z,23.95
2022-12-17T05:48:53.746Z,25.20
2022-12-17T05:51:39.947Z,24.40
2022-12-17T05:54:26.308Z,23.83
2022-12-17T05:57:12.657Z,23.45
2022-12-17T05:59:58.734Z,23.60
2022-12-17T06:02:44.854Z,27.85
2022-12-17T06:05:30.771Z,24.83
2022-12-17T06:08:27.470Z,24.58
2022-12-17T06:11:13.356Z,24.17
2022-12-17T06:13:58.819Z,23.95
2022-12-17T06:16:44.051Z,24.20
2022-12-17T06:19:29.506Z,23.80
2022-12-17T06:22:15.156Z,23.35
2022-12-17T06:25:00.674Z,23.33
2022-12-17T06:27:46.516Z,24.10
2022-12-17T06:30:32.189Z,25.10
2022-12-17T06:33:25.319Z,23.67
2022-12-17T06:36:18.034Z,22.73
2022-12-17T06:39:06.980Z,23.90
2022-12-17T06:41:52.774Z,22.73
2022-12-17T06:47:30.837Z,22.42
2022-12-17T06:50:16.788Z,22.02
2022-12-17T06:53:02.436Z,23.50
2022-12-17T06:55:47.899Z,24.05
2022-12-17T06:58:33.285Z,23.40
2022-12-17T07:01:18.940Z,24.52
2022-12-17T07:04:04.432Z,22.33
2022-12-17T07:06:49.702Z,23.88
2022-12-17T07:09:35.027Z,24.33
2022-12-17T07:12:20.476Z,26.95
2022-12-17T07:15:05.785Z,29.35
2022-12-17T07:17:51.233Z,23.50
2022-12-17T07:20:36.858Z,26.85
2022-12-17T07:23:22.083Z,26.17
2022-12-17T07:26:07.263Z,24.15
2022-12-17T07:28:52.915Z,23.67
2022-12-17T07:31:38.643Z,24.48
2022-12-17T07:34:25.022Z,24.45
2022-12-17T07:37:10.792Z,22.35
2022-12-17T07:39:56.573Z,23.92
2022-12-17T07:42:42.391Z,24.05
2022-12-17T07:45:28.064Z,24.45
2022-12-17T07:48:13.771Z,24.27
2022-12-17T07:50:59.411Z,24.38
2022-12-17T07:53:45.011Z,25.02
2022-12-17T07:56:30.688Z,25.15
2022-12-17T07:59:15.974Z,23.98
2022-12-17T08:02:01.817Z,23.88
2022-12-17T08:04:57.948Z,24.15
2022-12-17T08:07:44.360Z,27.10
2022-12-17T08:10:29.905Z,28.80
2022-12-17T08:13:17.587Z,26.05
2022-12-17T08:16:03.830Z,26.40
2022-12-17T08:18:49.517Z,23.60
2022-12-17T08:21:34.866Z,25.95
2022-12-17T08:24:20.156Z,27.98
2022-12-17T08:27:05.756Z,25.80
2022-12-17T08:29:51.133Z,26.48
2022-12-17T08:32:36.706Z,25.48
2022-12-17T08:35:30.190Z,26.77
2022-12-17T08:41:08.368Z,26.38
2022-12-17T08:43:54.031Z,25.42
2022-12-17T08:46:39.855Z,27.85
2022-12-17T08:49:25.253Z,26.45
2022-12-17T08:52:10.754Z,26.77
2022-12-17T08:54:55.911Z,27.23
2022-12-17T08:57:41.748Z,34.47
2022-12-17T09:00:28.277Z,30.05
2022-12-17T09:03:20.928Z,30.80
2022-12-17T09:06:06.697Z,30.42
2022-12-17T09:08:52.518Z,30.50
2022-12-17T09:11:38.059Z,30.13
2022-12-17T09:14:23.593Z,28.83
2022-12-17T09:17:08.916Z,31.45
2022-12-17T09:19:54.439Z,27.30
2022-12-17T09:22:39.632Z,28.52
2022-12-17T09:25:25.537Z,27.70
2022-12-17T09:28:11.236Z,28.73
2022-12-17T09:30:56.817Z,27.33
2022-12-17T09:33:42.602Z,28.70
2022-12-17T09:36:28.262Z,28.08
2022-12-17T09:39:13.769Z,28.30
2022-12-17T09:42:04.210Z,27.80
2022-12-17T09:44:59.723Z,28.98
2022-12-17T09:48:00.774Z,26.27
2022-12-17T09:50:46.046Z,25.65
2022-12-17T09:53:47.569Z,26.95
2022-12-17T09:56:34.611Z,25.50
2022-12-17T09:59:20.184Z,38.80
2022-12-17T10:02:05.716Z,25.83
2022-12-17T10:04:55.846Z,25.52
2022-12-17T10:07:52.658Z,25.20
2022-12-17T10:10:43.208Z,25.98
2022-12-17T10:13:38.445Z,25.00
2022-12-17T10:16:52.697Z,26.02
2022-12-17T10:22:32.315Z,26.75
2022-12-17T10:25:24.587Z,25.73
2022-12-17T10:28:10.005Z,25.02
2022-12-17T10:30:58.876Z,26.55
2022-12-17T10:34:04.213Z,26.00
2022-12-17T10:36:50.263Z,26.40
2022-12-17T10:39:39.426Z,35.90
2022-12-17T10:42:48.412Z,26.08
2022-12-17T10:45:43.655Z,26.13
2022-12-17T10:48:41.262Z,25.40
2022-12-17T10:51:43.912Z,26.85
2022-12-17T10:54:39.995Z,24.80
2022-12-17T10:57:44.541Z,24.55
2022-12-17T11:00:35.667Z,26.38
2022-12-17T11:03:22.686Z,28.50
2022-12-17T11:06:16.602Z,27.42
2022-12-17T11:09:02.153Z,26.75
2022-12-17T11:11:48.331Z,26.92
2022-12-17T11:14:34.334Z,24.88
2022-12-17T11:17:23.787Z,25.65
2022-12-17T11:20:16.864Z,24.33
2022-12-17T11:23:06.856Z,24.95
2022-12-17T11:26:01.190Z,25.13
2022-12-17T11:28:48.828Z,25.80
2022-12-17T11:31:37.309Z,26.05
2022-12-17T11:34:33.513Z,25.30
2022-12-17T11:37:48.231Z,25.27
2022-12-17T11:40:33.559Z,25.17
2022-12-17T11:43:45.338Z,24.42
2022-12-17T11:46:58.367Z,25.30
2022-12-17T11:49:58.674Z,25.60
2022-12-17T11:52:55.841Z,26.88
2022-12-17T11:56:16.690Z,26.00
2022-12-17T11:59:12.474Z,25.65
2022-12-17T12:02:09.760Z,24.80
2022-12-17T12:05:02.680Z,27.20
2022-12-17T12:08:01.820Z,32.95
2022-12-17T12:11:02.793Z,27.67
2022-12-17T12:14:10.390Z,26.88
2022-12-17T12:17:07.807Z,25.05
2022-12-17T12:20:07.704Z,26.33
2022-12-17T12:23:20.174Z,26.77
2022-12-17T12:26:18.325Z,26.77
2022-12-17T12:29:37.439Z,28.05
2022-12-17T12:32:23.116Z,26.75
2022-12-17T12:35:11.736Z,25.80
2022-12-17T12:37:57.694Z,26.48
2022-12-17T12:41:03.386Z,24.52
2022-12-17T12:43:51.991Z,29.45
2022-12-17T12:46:59.959Z,26.88
2022-12-17T12:49:56.184Z,26.35
2022-12-17T12:52:43.582Z,25.52
2022-12-17T12:55:29.932Z,27.13
2022-12-17T12:58:44.187Z,27.33
2022-12-17T13:01:30.477Z,26.58
2022-12-17T13:04:18.994Z,25.50
2022-12-17T13:06:57.131Z,26.02
2022-12-17T13:09:35.005Z,25.77
2022-12-17T13:12:05.284Z,87.63
2022-12-17T13:14:34.953Z,32.88
2022-12-17T13:17:04.891Z,27.35
2022-12-17T13:19:32.012Z,26.17
2022-12-17T13:22:23.621Z,27.63
2022-12-17T13:24:57.893Z,26.30
2022-12-17T13:27:34.341Z,29.20
2022-12-17T13:30:21.584Z,26.25
2022-12-17T13:33:00.007Z,28.23
2022-12-17T13:35:57.678Z,26.77
2022-12-17T13:38:46.709Z,26.60
2022-12-17T13:41:22.364Z,29.13
2022-12-17T13:44:02.371Z,28.13
2022-12-17T13:46:46.445Z,28.33
2022-12-17T13:49:23.208Z,28.80
2022-12-17T13:52:03.271Z,29.17
2022-12-17T13:54:33.685Z,27.50
2022-12-17T13:57:13.990Z,28.30
2022-12-17T13:59:41.139Z,27.20
2022-12-17T14:02:26.992Z,27.15
2022-12-17T14:04:56.519Z,26.55
2022-12-17T14:07:26.361Z,29.48
2022-12-17T14:09:54.467Z,28.25
2022-12-17T14:12:25.668Z,27.92
2022-12-17T14:15:08.691Z,29.10
2022-12-17T14:17:40.852Z,29.05
2022-12-17T14:20:16.075Z,27.40
2022-12-17T14:22:51.406Z,29.35
2022-12-17T14:25:23.318Z,27.63
2022-12-17T14:28:32.986Z,29.38
2022-12-17T14:34:08.081Z,27.45
2022-12-17T14:36:41.097Z,29.33
2022-12-17T14:39:21.071Z,32.80
2022-12-17T14:42:06.870Z,32.92
2022-12-17T14:44:34.286Z,32.30
2022-12-17T14:47:26.745Z,33.88
2022-12-17T14:49:58.654Z,32.43
2022-12-17T14:52:42.579Z,30.98
2022-12-17T14:55:36.584Z,28.88
2022-12-17T14:58:29.787Z,27.50
2022-12-17T15:01:08.160Z,28.02
2022-12-17T15:03:40.839Z,27.90
2022-12-17T15:06:13.685Z,28.67
2022-12-17T15:08:43.514Z,28.85
2022-12-17T15:11:13.192Z,33.08
2022-12-17T15:13:40.573Z,28.98
2022-12-17T15:16:07.823Z,28.58
2022-12-17T15:18:34.885Z,27.98
2022-12-17T15:21:02.842Z,26.10
2022-12-17T15:23:30.464Z,24.73
2022-12-17T15:25:57.341Z,24.05
2022-12-17T15:28:24.422Z,26.20
2022-12-17T15:30:52.222Z,25.05
2022-12-17T15:33:19.182Z,25.67
2022-12-17T15:35:45.996Z,26.70
2022-12-17T15:38:13.396Z,27.85
2022-12-17T15:40:40.596Z,26.38
2022-12-17T15:43:12.176Z,27.17
2022-12-17T15:45:44.492Z,25.52
2022-12-17T15:48:13.336Z,26.58
2022-12-17T15:50:40.697Z,25.55
2022-12-17T15:53:09.552Z,23.85
2022-12-17T15:55:37.345Z,23.77
2022-12-17T15:58:05.814Z,25.65
2022-12-17T16:00:33.121Z,26.73
2022-12-17T16:03:00.079Z,24.88
2022-12-17T16:05:27.195Z,24.95
2022-12-17T16:07:54.180Z,23.23
2022-12-17T16:10:21.070Z,23.23
2022-12-17T16:12:47.940Z,25.55
2022-12-17T16:15:14.914Z,23.52
2022-12-17T16:17:41.812Z,23.70
2022-12-17T16:20:09.202Z,27.30
2022-12-17T16:22:36.870Z,24.42
2022-12-17T16:25:05.032Z,24.48
2022-12-17T16:27:31.902Z,24.95
2022-12-17T16:29:58.883Z,23.92
2022-12-17T16:32:25.760Z,25.27
2022-12-17T16:34:52.646Z,24.67
2022-12-17T16:37:19.550Z,23.90
2022-12-17T16:39:46.461Z,26.20
2022-12-17T16:42:13.464Z,23.70
2022-12-17T16:44:40.523Z,23.83
2022-12-17T16:47:07.433Z,26.20
2022-12-17T16:49:34.319Z,27.48
2022-12-17T16:52:02.498Z,28.83
2022-12-17T16:54:32.383Z,26.65
2022-12-17T16:56:59.232Z,28.15
2022-12-17T16:59:26.729Z,27.50
2022-12-17T17:01:53.616Z,27.98
2022-12-17T17:04:22.906Z,29.67
2022-12-17T17:06:55.495Z,27.73
2022-12-17T17:09:23.598Z,31.17
2022-12-17T17:11:52.331Z,30.33
2022-12-17T17:14:19.897Z,31.02
2022-12-17T17:16:46.788Z,35.72
2022-12-17T17:19:13.711Z,32.00
2022-12-17T17:21:52.856Z,32.78
2022-12-17T17:24:22.350Z,32.00
2022-12-17T17:26:51.378Z,32.40
2022-12-17T17:29:18.652Z,27.15
2022-12-17T17:32:09.252Z,31.98
2022-12-17T17:34:32.837Z,30.98
2022-12-17T17:36:59.985Z,30.15
2022-12-17T17:39:27.568Z,42.17
2022-12-17T17:41:54.507Z,34.45
2022-12-17T17:44:21.476Z,30.58
2022-12-17T17:46:48.486Z,28.92
2022-12-17T17:49:15.709Z,30.48
2022-12-17T17:54:31.864Z,28.63
2022-12-17T17:56:58.694Z,28.33
2022-12-17T17:59:33.239Z,30.58
2022-12-17T18:02:01.664Z,29.33
2022-12-17T18:04:28.754Z,29.75
2022-12-17T18:07:24.108Z,26.33
2022-12-17T18:09:43.019Z,25.92
2022-12-17T18:12:28.541Z,26.20
2022-12-17T18:15:13.756Z,26.30
2022-12-17T18:17:42.365Z,27.38
2022-12-17T18:20:10.193Z,26.35
2022-12-17T18:22:37.905Z,28.50
2022-12-17T18:25:05.633Z,24.55
2022-12-17T18:27:32.742Z,23.80
2022-12-17T18:29:59.626Z,25.58
2022-12-17T18:32:26.768Z,36.65
2022-12-17T18:34:53.819Z,24.80
2022-12-17T18:37:20.723Z,23.50
2022-12-17T18:39:48.785Z,23.40
2022-12-17T18:42:34.118Z,23.10
2022-12-17T18:45:01.072Z,20.80
2022-12-17T18:47:28.044Z,21.25
2022-12-17T18:49:54.918Z,24.33
2022-12-17T18:52:23.662Z,24.27
2022-12-17T18:54:50.540Z,26.73
2022-12-17T18:57:17.428Z,24.02
2022-12-17T18:59:44.324Z,22.98
2022-12-17T19:02:15.350Z,25.02
2022-12-17T19:04:43.090Z,21.05
2022-12-17T19:07:10.767Z,24.58
2022-12-17T19:09:39.545Z,24.20
2022-12-17T19:12:08.209Z,20.73
2022-12-17T19:14:35.510Z,22.70
2022-12-17T19:17:06.118Z,21.60
2022-12-17T19:19:33.960Z,22.90
2022-12-17T19:22:02.143Z,29.20
2022-12-17T19:24:29.201Z,23.90
2022-12-17T19:26:56.800Z,22.85
2022-12-17T19:29:23.768Z,23.70
2022-12-17T19:31:50.846Z,23.73
2022-12-17T19:34:19.145Z,55.40
2022-12-17T19:36:47.219Z,25.95
2022-12-17T19:39:19.393Z,26.25
2022-12-17T19:41:50.076Z,23.55
2022-12-17T19:44:20.115Z,25.75
2022-12-17T19:46:49.155Z,27.98
2022-12-17T19:49:18.790Z,24.95
2022-12-17T19:51:45.820Z,21.92
2022-12-17T19:54:15.267Z,26.30
2022-12-17T19:56:44.398Z,26.10
2022-12-17T19:59:12.782Z,23.77
2022-12-17T20:01:43.782Z,23.98
2022-12-17T20:04:15.681Z,27.73
2022-12-17T20:06:43.838Z,26.58
2022-12-17T20:09:10.756Z,22.58
2022-12-17T20:11:38.481Z,24.50
2022-12-17T20:14:11.481Z,23.73
2022-12-17T20:16:47.420Z,22.48
2022-12-17T20:19:17.508Z,23.60
2022-12-17T20:21:44.901Z,22.83
2022-12-17T20:24:15.732Z,21.50
2022-12-17T20:26:44.470Z,22.65
2022-12-17T20:29:11.896Z,22.85
2022-12-17T20:31:39.295Z,23.73
2022-12-17T20:34:08.276Z,25.33
2022-12-17T20:36:35.657Z,25.27
2022-12-17T20:39:03.064Z,25.88
2022-12-17T20:41:31.038Z,24.90
2022-12-17T20:43:58.638Z,25.90
2022-12-17T20:46:26.061Z,26.30
2022-12-17T20:48:58.490Z,29.15
2022-12-17T20:51:27.668Z,31.50
2022-12-17T20:53:56.714Z,31.95
2022-12-17T20:56:26.946Z,27.60
2022-12-17T20:58:55.820Z,21.58
2022-12-17T21:01:24.582Z,27.65
2022-12-17T21:03:53.797Z,27.70
2022-12-17T21:06:24.677Z,30.85
2022-12-17T21:08:53.564Z,28.17
2022-12-17T21:11:23.705Z,29.83
2022-12-17T21:13:50.953Z,29.23
2022-12-17T21:16:21.132Z,31.52
2022-12-17T21:18:48.478Z,32.33
2022-12-17T21:21:18.624Z,34.03
2022-12-17T21:23:47.579Z,33.00
2022-12-17T21:26:25.041Z,32.55
2022-12-17T21:28:54.195Z,36.55
2022-12-17T21:31:22.677Z,29.67
2022-12-17T21:33:51.689Z,36.78
2022-12-17T21:36:20.421Z,35.72
2022-12-17T21:38:48.357Z,38.42
2022-12-17T21:41:18.600Z,37.60
2022-12-17T21:43:45.811Z,34.83
2022-12-17T21:46:13.914Z,37.75
2022-12-17T21:48:42.863Z,38.22
2022-12-17T21:51:12.458Z,47.10
2022-12-17T21:53:42.852Z,37.70
2022-12-17T21:56:12.815Z,38.47
2022-12-17T21:58:41.252Z,38.83
2022-12-17T22:01:18.811Z,34.28
2022-12-17T22:03:53.028Z,38.22
2022-12-17T22:06:25.684Z,36.72
2022-12-17T22:09:00.607Z,37.08
2022-12-17T22:11:32.992Z,38.40
2022-12-17T22:14:07.352Z,34.70
2022-12-17T22:16:42.634Z,38.17
2022-12-17T22:19:11.381Z,36.20
2022-12-17T22:21:40.369Z,32.15
2022-12-17T22:24:07.787Z,30.88
2022-12-17T22:26:35.210Z,32.25
2022-12-17T22:29:03.178Z,32.47
2022-12-17T22:31:48.456Z,26.20
2022-12-17T22:35:24.742Z,29.15
2022-12-17T22:39:44.437Z,29.25
2022-12-17T22:44:29.160Z,29.77
2022-12-17T22:44:30.355Z,27.02
2022-12-17T22:45:43.127Z,30.60
2022-12-17T22:48:13.091Z,30.20
2022-12-17T22:50:45.624Z,32.65
2022-12-17T22:53:21.719Z,36.13
2022-12-17T22:55:49.383Z,36.50
2022-12-17T22:58:16.908Z,39.33
2022-12-17T23:00:44.120Z,41.35
2022-12-17T23:03:11.149Z,32.53
2022-12-17T23:05:38.178Z,37.92
2022-12-17T23:08:05.235Z,47.40
2022-12-17T23:10:32.093Z,42.95
2022-12-17T23:12:58.964Z,43.13
2022-12-17T23:15:36.728Z,42.63
2022-12-17T23:18:06.667Z,41.17
2022-12-17T23:20:34.765Z,43.10
2022-12-17T23:23:02.093Z,47.50
2022-12-17T23:25:29.605Z,44.75
2022-12-17T23:27:56.725Z,45.45
2022-12-17T23:30:23.644Z,39.30
2022-12-17T23:32:50.877Z,43.38
2022-12-17T23:35:17.770Z,43.33
2022-12-17T23:37:44.717Z,39.83
2022-12-17T23:40:13.002Z,43.83
2022-12-17T23:42:39.879Z,46.38
2022-12-17T23:45:08.117Z,48.63
2022-12-17T23:47:34.991Z,42.70
2022-12-17T23:50:01.965Z,43.53
2022-12-17T23:52:29.386Z,47.17
2022-12-17T23:54:56.365Z,46.83
2022-12-17T23:57:23.254Z,45.13
2022-12-17T23:59:50.120Z,45.05
